Time;durP1;ratioP1;P1;durP2;ratioP2;P2;SDS_P1;SDS_P2;PMS_P1;PMS_P2;Temp;Humidity;BMP_temperature;BMP_pressure;BME280_temperature;BME280_humidity;BME280_pressure;Samples;Min_cycle;Max_cycle;Signal;HPM_P1;HPM_P2
2023/02/23 00:00:27;;;;;;;183.90;11.90;;;;;;;;;;4976185;28;20829;-58
2023/02/23 00:02:54;;;;;;;220.13;13.27;;;;;;;;;;4973784;28;20018;-59
2023/02/23 00:05:20;;;;;;;188.70;11.90;;;;;;;;;;4978346;28;20033;-58
2023/02/23 00:07:45;;;;;;;208.30;12.13;;;;;;;;;;4957088;28;20034;-60
2023/02/23 00:10:11;;;;;;;155.45;11.52;;;;;;;;;;4975089;28;20027;-58
2023/02/23 00:12:37;;;;;;;193.27;11.32;;;;;;;;;;4975119;28;20022;-59
2023/02/23 00:15:02;;;;;;;199.80;10.98;;;;;;;;;;4977679;28;20026;-59
2023/02/23 00:17:30;;;;;;;174.48;11.27;;;;;;;;;;4978661;28;20034;-59
2023/02/23 00:19:56;;;;;;;183.00;12.80;;;;;;;;;;4977122;28;20548;-60
2023/02/23 00:22:23;;;;;;;192.48;12.65;;;;;;;;;;4974983;28;20069;-57
2023/02/23 00:24:49;;;;;;;223.32;13.40;;;;;;;;;;4975041;28;20101;-58
2023/02/23 00:27:18;;;;;;;225.13;12.63;;;;;;;;;;4978368;28;20181;-59
2023/02/23 00:29:43;;;;;;;148.75;10.35;;;;;;;;;;4983183;28;20041;-58
2023/02/23 00:32:08;;;;;;;139.20;10.70;;;;;;;;;;4975184;28;20035;-57
2023/02/23 00:34:35;;;;;;;180.95;11.90;;;;;;;;;;4975487;28;20284;-57
2023/02/23 00:37:00;;;;;;;163.90;11.35;;;;;;;;;;4975547;28;20038;-58
2023/02/23 00:39:27;;;;;;;211.03;13.60;;;;;;;;;;4978479;28;20430;-57
2023/02/23 00:41:54;;;;;;;193.90;14.18;;;;;;;;;;4976402;28;20351;-57
2023/02/23 00:44:23;;;;;;;190.05;12.93;;;;;;;;;;4974561;28;20014;-58
2023/02/23 00:46:50;;;;;;;246.52;14.25;;;;;;;;;;4976259;28;20043;-58
2023/02/23 00:49:16;;;;;;;195.57;13.20;;;;;;;;;;4964064;28;20014;-58
2023/02/23 00:51:41;;;;;;;228.05;13.27;;;;;;;;;;4977812;28;20834;-58
2023/02/23 00:54:07;;;;;;;194.48;12.50;;;;;;;;;;4974619;28;20015;-58
2023/02/23 00:56:32;;;;;;;168.40;11.98;;;;;;;;;;4973743;28;20083;-59
2023/02/23 00:58:57;;;;;;;199.02;12.30;;;;;;;;;;4976571;28;20026;-59
2023/02/23 01:01:23;;;;;;;197.27;12.02;;;;;;;;;;4977204;28;20041;-58
2023/02/23 01:03:49;;;;;;;197.10;11.82;;;;;;;;;;4977917;28;20041;-58
2023/02/23 01:06:15;;;;;;;197.43;11.48;;;;;;;;;;4975828;28;20043;-57
2023/02/23 01:08:41;;;;;;;187.95;12.40;;;;;;;;;;4979078;28;20083;-57
2023/02/23 01:11:14;;;;;;;203.18;12.63;;;;;;;;;;4979528;28;20073;-58
2023/02/23 01:13:40;;;;;;;196.35;12.32;;;;;;;;;;4976256;28;20064;-59
2023/02/23 01:16:06;;;;;;;187.07;11.60;;;;;;;;;;4977439;28;20070;-59
2023/02/23 01:18:33;;;;;;;175.88;11.55;;;;;;;;;;4977082;28;20601;-57
2023/02/23 01:20:58;;;;;;;190.40;11.73;;;;;;;;;;4974693;28;20035;-58
2023/02/23 01:23:24;;;;;;;208.25;11.82;;;;;;;;;;4976102;28;20046;-59
2023/02/23 01:25:49;;;;;;;189.27;14.27;;;;;;;;;;4975155;28;20042;-58
2023/02/23 01:28:14;;;;;;;184.80;12.52;;;;;;;;;;4976525;28;20340;-58
2023/02/23 01:30:39;;;;;;;189.03;12.33;;;;;;;;;;4977327;28;20305;-58
2023/02/23 01:33:04;;;;;;;194.98;11.98;;;;;;;;;;4975714;28;20304;-59
2023/02/23 01:35:31;;;;;;;178.45;11.27;;;;;;;;;;4977740;28;20112;-59
2023/02/23 01:37:57;;;;;;;184.27;10.98;;;;;;;;;;4974111;28;20030;-58
2023/02/23 01:40:28;;;;;;;179.85;11.30;;;;;;;;;;4974311;28;20022;-57
2023/02/23 01:43:13;;;;;;;227.13;12.02;;;;;;;;;;4978143;28;20065;-59
2023/02/23 01:45:39;;;;;;;186.60;11.07;;;;;;;;;;4975389;28;20112;-59
2023/02/23 01:48:11;;;;;;;206.60;11.82;;;;;;;;;;4973954;28;20025;-58
2023/02/23 01:50:44;;;;;;;184.80;10.43;;;;;;;;;;4972644;28;20065;-57
2023/02/23 01:53:10;;;;;;;180.90;10.90;;;;;;;;;;4973739;28;20945;-58
2023/02/23 01:55:36;;;;;;;184.15;11.02;;;;;;;;;;4975377;28;20597;-58
2023/02/23 01:58:07;;;;;;;196.30;11.35;;;;;;;;;;4975809;28;20018;-57
2023/02/23 02:00:35;;;;;;;146.68;9.82;;;;;;;;;;4975919;28;20031;-59
2023/02/23 02:03:02;;;;;;;201.95;11.60;;;;;;;;;;4978102;28;20026;-59
2023/02/23 02:05:28;;;;;;;187.43;11.13;;;;;;;;;;4970499;28;20104;-58
2023/02/23 02:07:57;;;;;;;194.77;11.25;;;;;;;;;;4976508;28;20894;-58
2023/02/23 02:10:43;;;;;;;226.77;12.30;;;;;;;;;;4974919;28;20029;-59
2023/02/23 02:13:09;;;;;;;186.80;11.15;;;;;;;;;;4977275;28;20089;-59
2023/02/23 02:15:39;;;;;;;208.98;12.05;;;;;;;;;;4977205;28;20034;-58
2023/02/23 02:18:08;;;;;;;172.60;11.10;;;;;;;;;;4970988;28;20023;-58
2023/02/23 02:20:49;;;;;;;169.05;9.68;;;;;;;;;;4974995;28;20117;-58
2023/02/23 02:23:14;;;;;;;190.80;11.52;;;;;;;;;;4975862;28;20632;-58
2023/02/23 02:25:42;;;;;;;213.30;11.83;;;;;;;;;;4977666;28;20034;-58
2023/02/23 02:28:23;;;;;;;214.02;12.10;;;;;;;;;;4977890;28;20644;-58
2023/02/23 02:31:07;;;;;;;276.23;13.45;;;;;;;;;;4973825;28;20038;-58
2023/02/23 02:33:47;;;;;;;134.63;9.35;;;;;;;;;;4970406;28;20136;-57
2023/02/23 02:36:16;;;;;;;173.43;10.55;;;;;;;;;;4975328;28;20715;-59
2023/02/23 02:38:49;;;;;;;166.15;10.38;;;;;;;;;;4977061;28;20018;-59
2023/02/23 02:41:24;;;;;;;198.60;11.23;;;;;;;;;;4971950;28;20023;-58
2023/02/23 02:43:57;;;;;;;192.32;11.15;;;;;;;;;;4971423;28;20031;-57
2023/02/23 02:46:22;;;;;;;147.82;10.40;;;;;;;;;;4975051;28;20555;-59
2023/02/23 02:48:47;;;;;;;175.10;10.32;;;;;;;;;;4974751;28;20031;-59
2023/02/23 02:51:17;;;;;;;202.13;11.87;;;;;;;;;;4972740;28;20980;-58
2023/02/23 02:53:54;;;;;;;153.02;10.77;;;;;;;;;;4973024;28;20362;-59
2023/02/23 02:56:21;;;;;;;200.60;10.70;;;;;;;;;;4975988;28;20118;-58
2023/02/23 02:58:48;;;;;;;166.73;9.93;;;;;;;;;;4976883;28;20027;-57
2023/02/23 04:19:32;;;;;;;190.00;11.63;;;;;;;;;;4979740;28;20019;-57
2023/02/23 04:21:57;;;;;;;203.68;11.50;;;;;;;;;;4976115;28;20444;-59
2023/02/23 04:24:22;;;;;;;173.02;10.95;;;;;;;;;;4979630;28;20101;-60
2023/02/23 04:26:48;;;;;;;187.67;11.00;;;;;;;;;;4976697;28;20038;-59
2023/02/23 04:29:13;;;;;;;249.20;12.48;;;;;;;;;;4979657;28;20251;-57
2023/02/23 04:31:40;;;;;;;181.20;10.90;;;;;;;;;;4978974;28;20047;-58
2023/02/23 04:34:05;;;;;;;172.32;11.73;;;;;;;;;;4980974;28;20088;-59
2023/02/23 04:36:30;;;;;;;204.18;12.27;;;;;;;;;;4978709;28;20069;-59
2023/02/23 04:38:56;;;;;;;169.70;12.35;;;;;;;;;;4978433;28;20041;-58
2023/02/23 04:41:21;;;;;;;211.93;12.57;;;;;;;;;;4979029;28;20089;-57
2023/02/23 04:43:46;;;;;;;161.55;11.32;;;;;;;;;;4979438;28;20294;-59
2023/02/23 04:46:11;;;;;;;175.30;11.00;;;;;;;;;;4977917;28;20112;-58
2023/02/23 04:48:37;;;;;;;204.57;11.55;;;;;;;;;;4976051;28;20270;-58
2023/02/23 04:51:02;;;;;;;170.80;10.97;;;;;;;;;;4974101;28;20073;-58
2023/02/23 04:53:27;;;;;;;175.15;11.20;;;;;;;;;;4976945;28;20404;-58
2023/02/23 04:55:53;;;;;;;189.55;11.18;;;;;;;;;;4976483;28;20034;-58
2023/02/23 04:58:18;;;;;;;188.52;10.95;;;;;;;;;;4975258;28;20015;-58
2023/02/23 05:00:44;;;;;;;210.55;11.32;;;;;;;;;;4978821;28;20038;-57
2023/02/23 05:03:09;;;;;;;164.57;10.32;;;;;;;;;;4978816;28;20117;-57
2023/02/23 05:05:34;;;;;;;184.05;11.07;;;;;;;;;;4980629;28;20033;-59
2023/02/23 05:07:59;;;;;;;221.13;12.20;;;;;;;;;;4976707;28;20073;-57
2023/02/23 05:10:26;;;;;;;178.40;11.63;;;;;;;;;;4977139;28;20065;-59
2023/02/23 05:12:51;;;;;;;207.38;11.82;;;;;;;;;;4974473;28;21103;-58
2023/02/23 05:15:16;;;;;;;220.70;12.20;;;;;;;;;;4972646;28;20030;-57
2023/02/23 05:17:41;;;;;;;224.75;12.57;;;;;;;;;;4975441;28;20520;-58
2023/02/23 05:20:08;;;;;;;226.83;12.10;;;;;;;;;;4971045;28;20049;-57
2023/02/23 05:22:33;;;;;;;193.98;11.32;;;;;;;;;;4976180;28;20319;-57
2023/02/23 05:24:58;;;;;;;192.77;12.15;;;;;;;;;;4979994;28;20031;-58
2023/02/23 05:27:24;;;;;;;187.83;11.37;;;;;;;;;;4975227;28;20501;-56
2023/02/23 05:29:49;;;;;;;182.70;11.20;;;;;;;;;;4975767;28;20278;-57
2023/02/23 05:32:14;;;;;;;198.30;10.98;;;;;;;;;;4976218;28;20046;-58
2023/02/23 05:34:39;;;;;;;247.77;12.60;;;;;;;;;;4978128;28;20038;-58
2023/02/23 05:37:05;;;;;;;194.00;11.38;;;;;;;;;;4973943;28;20676;-57
2023/02/23 05:39:30;;;;;;;203.55;12.85;;;;;;;;;;4973200;28;20065;-57
2023/02/23 05:41:55;;;;;;;197.80;12.23;;;;;;;;;;4976038;28;20081;-57
2023/02/23 05:44:21;;;;;;;167.93;10.27;;;;;;;;;;4978170;28;20121;-58
2023/02/23 05:46:46;;;;;;;241.03;12.40;;;;;;;;;;4974796;28;20049;-57
2023/02/23 05:49:12;;;;;;;187.15;11.35;;;;;;;;;;4978785;28;20346;-58
2023/02/23 05:51:38;;;;;;;184.27;11.25;;;;;;;;;;4979687;28;20043;-58
2023/02/23 05:54:03;;;;;;;205.05;11.88;;;;;;;;;;4973982;28;20030;-57
2023/02/23 05:56:28;;;;;;;151.35;10.13;;;;;;;;;;4974112;28;20545;-58
2023/02/23 05:58:56;;;;;;;197.83;11.93;;;;;;;;;;4971719;28;20117;-57
2023/02/23 06:01:21;;;;;;;166.32;11.73;;;;;;;;;;4975057;28;20289;-59
2023/02/23 06:03:47;;;;;;;185.10;11.88;;;;;;;;;;4975145;28;20026;-58
2023/02/23 06:06:12;;;;;;;178.32;11.68;;;;;;;;;;4976794;28;20046;-60
2023/02/23 06:08:37;;;;;;;202.20;11.98;;;;;;;;;;4970479;28;20073;-60
2023/02/23 06:11:03;;;;;;;210.37;12.63;;;;;;;;;;4971818;28;20045;-58
2023/02/23 06:13:28;;;;;;;204.82;13.95;;;;;;;;;;4978096;28;20809;-58
2023/02/23 06:15:54;;;;;;;152.02;12.35;;;;;;;;;;4974836;28;20041;-59
2023/02/23 06:18:20;;;;;;;202.98;14.20;;;;;;;;;;4973126;28;20097;-59
2023/02/23 06:20:45;;;;;;;172.85;13.07;;;;;;;;;;4977318;28;20038;-57
2023/02/23 06:23:11;;;;;;;194.07;13.90;;;;;;;;;;4975829;28;20041;-59
2023/02/23 06:25:36;;;;;;;253.77;14.30;;;;;;;;;;4972106;28;20045;-59
2023/02/23 06:28:01;;;;;;;180.18;12.77;;;;;;;;;;4977226;28;20258;-59
2023/02/23 06:30:26;;;;;;;174.15;13.45;;;;;;;;;;4980200;28;20029;-62
2023/02/23 06:32:52;;;;;;;189.20;13.77;;;;;;;;;;4975401;28;20038;-62
2023/02/23 06:35:17;;;;;;;145.60;13.38;;;;;;;;;;4974094;28;20096;-60
2023/02/23 06:37:42;;;;;;;230.02;14.43;;;;;;;;;;4976177;28;20015;-60
2023/02/23 06:40:08;;;;;;;165.30;12.52;;;;;;;;;;4975503;28;20022;-60
2023/02/23 06:42:34;;;;;;;171.50;11.85;;;;;;;;;;4975882;28;20025;-60
2023/02/23 06:45:00;;;;;;;225.20;12.45;;;;;;;;;;4972154;28;20395;-61
2023/02/23 06:47:25;;;;;;;156.48;11.65;;;;;;;;;;4978748;28;20050;-59
2023/02/23 06:49:50;;;;;;;169.93;11.35;;;;;;;;;;4984511;28;20053;-59
2023/02/23 06:52:15;;;;;;;143.30;10.90;;;;;;;;;;4980408;28;20062;-58
2023/02/23 06:54:41;;;;;;;176.77;11.77;;;;;;;;;;4980749;28;20393;-60
2023/02/23 06:57:09;;;;;;;181.15;11.85;;;;;;;;;;4978890;28;20112;-59
2023/02/23 06:59:35;;;;;;;152.30;11.15;;;;;;;;;;4977418;28;20073;-60
2023/02/23 07:02:01;;;;;;;164.20;11.38;;;;;;;;;;4974798;28;20038;-60
2023/02/23 07:04:26;;;;;;;171.25;11.93;;;;;;;;;;4980186;28;20193;-60
2023/02/23 07:06:51;;;;;;;182.13;11.55;;;;;;;;;;4980756;28;20038;-60
2023/02/23 07:09:17;;;;;;;192.88;11.63;;;;;;;;;;4975364;28;20026;-60
2023/02/23 07:11:43;;;;;;;208.77;12.20;;;;;;;;;;4977307;28;20045;-59
2023/02/23 07:14:09;;;;;;;165.07;10.95;;;;;;;;;;4976291;28;20211;-60
2023/02/23 07:16:35;;;;;;;224.23;13.35;;;;;;;;;;4960637;28;20038;-59
2023/02/23 07:19:01;;;;;;;186.70;11.85;;;;;;;;;;4981129;28;20105;-61
2023/02/23 07:21:26;;;;;;;175.18;11.80;;;;;;;;;;4977915;28;20331;-60
2023/02/23 07:23:51;;;;;;;197.70;12.02;;;;;;;;;;4978563;28;20505;-60
2023/02/23 07:26:17;;;;;;;159.32;10.63;;;;;;;;;;4978436;28;20699;-60
2023/02/23 07:28:42;;;;;;;161.65;10.85;;;;;;;;;;4979776;28;20030;-61
2023/02/23 07:31:08;;;;;;;193.77;11.20;;;;;;;;;;4976579;28;20072;-60
2023/02/23 07:33:33;;;;;;;135.05;10.35;;;;;;;;;;4973827;28;20073;-59
2023/02/23 07:35:58;;;;;;;193.88;11.15;;;;;;;;;;4979718;28;20668;-59
2023/02/23 07:38:24;;;;;;;180.00;12.20;;;;;;;;;;4981918;28;20026;-59
2023/02/23 07:40:49;;;;;;;175.07;11.63;;;;;;;;;;4980225;28;20258;-58
2023/02/23 07:43:15;;;;;;;214.30;12.80;;;;;;;;;;4978428;28;20056;-60
2023/02/23 07:45:40;;;;;;;195.63;13.30;;;;;;;;;;4977603;28;20031;-59
2023/02/23 07:48:06;;;;;;;161.45;11.15;;;;;;;;;;4979050;28;20116;-60
2023/02/23 07:50:31;;;;;;;211.50;13.50;;;;;;;;;;4978040;28;20037;-59
2023/02/23 07:52:56;;;;;;;197.63;13.07;;;;;;;;;;4979715;28;20574;-59
2023/02/23 07:55:21;;;;;;;149.48;11.40;;;;;;;;;;4977110;28;20264;-61
2023/02/23 07:57:47;;;;;;;192.80;12.82;;;;;;;;;;4976306;28;20458;-59
2023/02/23 08:00:12;;;;;;;185.25;12.38;;;;;;;;;;4980090;28;20018;-59
2023/02/23 08:02:37;;;;;;;221.15;12.95;;;;;;;;;;4977680;28;20256;-59
2023/02/23 08:05:03;;;;;;;168.20;10.17;;;;;;;;;;4980912;28;20331;-59
2023/02/23 08:07:30;;;;;;;190.05;11.63;;;;;;;;;;4982927;28;20315;-60
2023/02/23 08:09:55;;;;;;;183.00;11.90;;;;;;;;;;4981239;28;20026;-59
2023/02/23 08:12:20;;;;;;;152.63;11.23;;;;;;;;;;4975809;28;20377;-59
2023/02/23 08:14:46;;;;;;;200.25;12.60;;;;;;;;;;4980771;28;20278;-60
2023/02/23 08:17:11;;;;;;;181.05;13.13;;;;;;;;;;4977505;28;20027;-61
2023/02/23 08:19:36;;;;;;;166.90;11.60;;;;;;;;;;4963055;28;20041;-60
2023/02/23 08:22:02;;;;;;;221.48;13.27;;;;;;;;;;4978048;28;20049;-59
2023/02/23 08:24:29;;;;;;;189.38;13.65;;;;;;;;;;4979001;28;20032;-59
2023/02/23 08:26:54;;;;;;;179.07;13.32;;;;;;;;;;4973119;28;20038;-59
2023/02/23 08:29:20;;;;;;;217.63;13.83;;;;;;;;;;4979009;28;20068;-59
2023/02/23 08:31:45;;;;;;;183.38;13.50;;;;;;;;;;4977044;28;20263;-60
2023/02/23 08:34:10;;;;;;;160.43;13.55;;;;;;;;;;4981309;28;20500;-61
2023/02/23 08:36:35;;;;;;;177.68;13.32;;;;;;;;;;4978091;28;20640;-60
2023/02/23 08:39:01;;;;;;;159.73;12.63;;;;;;;;;;4975046;28;20084;-59
2023/02/23 08:41:26;;;;;;;211.00;15.23;;;;;;;;;;4975851;28;20273;-59
2023/02/23 08:43:52;;;;;;;173.43;13.93;;;;;;;;;;4973914;28;20529;-61
2023/02/23 08:46:19;;;;;;;145.20;13.95;;;;;;;;;;4977741;28;20034;-60
2023/02/23 08:48:45;;;;;;;182.18;14.27;;;;;;;;;;4957393;28;20690;-59
2023/02/23 08:51:10;;;;;;;200.90;15.60;;;;;;;;;;4978874;28;20034;-61
2023/02/23 08:53:36;;;;;;;198.88;14.18;;;;;;;;;;4980269;28;20040;-60
2023/02/23 08:56:03;;;;;;;194.82;15.07;;;;;;;;;;4978872;28;20022;-61
2023/02/23 08:58:32;;;;;;;156.52;12.25;;;;;;;;;;4981952;28;20774;-61
2023/02/23 09:00:57;;;;;;;190.35;15.00;;;;;;;;;;4976947;28;20086;-61
2023/02/23 09:03:25;;;;;;;140.02;13.95;;;;;;;;;;4977572;28;20490;-60
2023/02/23 09:05:50;;;;;;;198.43;14.90;;;;;;;;;;4976782;28;20044;-61
2023/02/23 09:08:15;;;;;;;167.85;14.57;;;;;;;;;;4981225;28;20332;-57
2023/02/23 09:10:42;;;;;;;199.32;15.57;;;;;;;;;;4976394;28;20042;-59
2023/02/23 09:13:08;;;;;;;194.07;15.07;;;;;;;;;;4977876;28;20033;-57
2023/02/23 09:15:34;;;;;;;188.98;14.40;;;;;;;;;;4975156;28;20027;-58
2023/02/23 09:18:02;;;;;;;175.90;15.98;;;;;;;;;;4979666;28;20166;-58
2023/02/23 09:20:27;;;;;;;140.73;15.48;;;;;;;;;;4975860;28;20031;-59
2023/02/23 09:22:52;;;;;;;171.45;15.40;;;;;;;;;;4974797;28;20036;-58
2023/02/23 09:25:21;;;;;;;209.77;17.48;;;;;;;;;;4978150;28;20181;-59
2023/02/23 09:27:46;;;;;;;149.15;15.38;;;;;;;;;;4980304;28;20022;-57
2023/02/23 09:30:16;;;;;;;146.32;15.43;;;;;;;;;;4976177;28;20018;-59
2023/02/23 09:32:42;;;;;;;191.95;16.60;;;;;;;;;;4973835;28;20029;-58
2023/02/23 09:35:08;;;;;;;185.00;17.77;;;;;;;;;;4976537;28;20018;-59
2023/02/23 09:37:33;;;;;;;186.65;17.05;;;;;;;;;;4974130;28;20041;-57
2023/02/23 09:39:58;;;;;;;183.95;17.90;;;;;;;;;;4972052;28;20057;-59
2023/02/23 09:42:36;;;;;;;158.80;16.10;;;;;;;;;;4974115;28;20026;-57
2023/02/23 09:45:20;;;;;;;174.98;17.20;;;;;;;;;;4976934;28;20321;-59
2023/02/23 09:47:51;;;;;;;210.95;17.85;;;;;;;;;;4974921;28;20054;-57
2023/02/23 09:50:20;;;;;;;170.23;18.00;;;;;;;;;;4975493;28;20093;-59
2023/02/23 09:52:47;;;;;;;205.13;19.42;;;;;;;;;;4975533;28;20046;-59
2023/02/23 09:55:13;;;;;;;194.63;18.17;;;;;;;;;;4975167;28;20017;-59
2023/02/23 09:57:40;;;;;;;232.75;18.88;;;;;;;;;;4975829;28;20072;-57
2023/02/23 10:00:31;;;;;;;226.18;18.65;;;;;;;;;;4976531;28;20034;-60
2023/02/23 10:02:56;;;;;;;187.37;17.50;;;;;;;;;;4973420;28;20387;-59
2023/02/23 10:05:22;;;;;;;153.27;17.83;;;;;;;;;;4973967;28;20296;-57
2023/02/23 10:07:58;;;;;;;186.88;18.38;;;;;;;;;;4974142;28;20021;-59
2023/02/23 10:10:29;;;;;;;166.57;18.90;;;;;;;;;;4976660;28;20026;-59
2023/02/23 10:13:08;;;;;;;173.60;19.67;;;;;;;;;;4976642;28;20417;-59
2023/02/23 10:15:44;;;;;;;188.73;18.13;;;;;;;;;;4973616;28;20053;-58
2023/02/23 10:18:19;;;;;;;194.57;19.48;;;;;;;;;;4974130;28;20034;-57
2023/02/23 10:20:44;;;;;;;212.27;19.23;;;;;;;;;;4975430;28;20039;-59
2023/02/23 10:23:12;;;;;;;196.40;19.00;;;;;;;;;;4980492;28;20389;-58
2023/02/23 10:25:41;;;;;;;229.85;20.00;;;;;;;;;;4980328;28;20073;-58
2023/02/23 10:28:10;;;;;;;189.43;19.17;;;;;;;;;;4977951;28;20027;-59
2023/02/23 10:30:35;;;;;;;207.73;19.45;;;;;;;;;;4974901;28;20050;-58
2023/02/23 10:33:19;;;;;;;200.40;19.53;;;;;;;;;;4980120;28;20023;-60
2023/02/23 10:35:45;;;;;;;204.27;20.48;;;;;;;;;;4977548;28;20386;-58
2023/02/23 10:38:14;;;;;;;200.45;19.45;;;;;;;;;;4979507;28;20038;-58
2023/02/23 10:40:40;;;;;;;216.95;21.05;;;;;;;;;;4976704;28;20027;-57
2023/02/23 10:43:05;;;;;;;238.95;21.98;;;;;;;;;;4980934;28;20077;-57
2023/02/23 10:45:35;;;;;;;203.07;20.83;;;;;;;;;;4975657;28;20043;-58
2023/02/23 10:48:05;;;;;;;217.13;21.48;;;;;;;;;;4980424;28;20030;-61
2023/02/23 10:50:31;;;;;;;197.02;20.15;;;;;;;;;;4978346;28;20057;-59
2023/02/23 10:53:17;;;;;;;175.20;19.67;;;;;;;;;;4980078;28;20057;-59
2023/02/23 10:55:43;;;;;;;199.10;20.80;;;;;;;;;;4978795;28;20607;-58
2023/02/23 10:58:08;;;;;;;211.40;21.25;;;;;;;;;;4980927;28;20026;-58
2023/02/23 11:00:36;;;;;;;192.77;21.60;;;;;;;;;;4980287;28;20052;-59
2023/02/23 11:03:14;;;;;;;190.05;19.30;;;;;;;;;;4974946;28;20035;-59
2023/02/23 11:05:44;;;;;;;195.77;18.95;;;;;;;;;;4977475;28;20042;-61
2023/02/23 11:08:12;;;;;;;214.00;20.58;;;;;;;;;;4979024;28;20034;-58
2023/02/23 11:10:38;;;;;;;243.20;21.17;;;;;;;;;;4977071;28;20129;-59
2023/02/23 11:13:03;;;;;;;224.00;19.58;;;;;;;;;;4979097;28;20025;-61
2023/02/23 11:15:32;;;;;;;204.63;20.77;;;;;;;;;;4979568;28;20064;-59
2023/02/23 11:18:02;;;;;;;186.98;20.15;;;;;;;;;;4976134;28;20285;-59
2023/02/23 11:20:34;;;;;;;181.35;19.15;;;;;;;;;;4976965;28;20031;-59
2023/02/23 11:23:20;;;;;;;204.25;18.77;;;;;;;;;;4975816;28;20022;-57
2023/02/23 11:25:45;;;;;;;247.63;20.20;;;;;;;;;;4974831;28;20468;-58
2023/02/23 11:28:19;;;;;;;180.15;19.00;;;;;;;;;;4975964;28;20092;-57
2023/02/23 11:30:45;;;;;;;188.95;19.70;;;;;;;;;;4978316;28;20403;-58
2023/02/23 11:33:15;;;;;;;212.93;19.42;;;;;;;;;;4980757;28;20504;-58
2023/02/23 11:35:40;;;;;;;208.65;18.52;;;;;;;;;;4977339;28;20125;-59
2023/02/23 11:38:20;;;;;;;225.67;20.83;;;;;;;;;;4980267;28;20105;-58
2023/02/23 11:40:57;;;;;;;191.70;19.48;;;;;;;;;;4980366;28;20249;-59
2023/02/23 11:43:23;;;;;;;210.27;21.02;;;;;;;;;;4979034;28;20847;-59
2023/02/23 11:45:52;;;;;;;195.47;19.87;;;;;;;;;;4977850;28;20910;-57
2023/02/23 11:48:21;;;;;;;209.35;20.15;;;;;;;;;;4978899;28;20270;-57
2023/02/23 11:50:51;;;;;;;159.98;19.63;;;;;;;;;;4978752;28;20030;-57
2023/02/23 11:53:36;;;;;;;187.60;20.58;;;;;;;;;;4977533;28;20790;-58
2023/02/23 11:56:09;;;;;;;198.05;21.38;;;;;;;;;;4979473;28;20035;-57
2023/02/23 11:58:41;;;;;;;192.55;20.10;;;;;;;;;;4982343;28;20498;-59
2023/02/23 12:01:11;;;;;;;177.07;20.33;;;;;;;;;;4977269;28;20030;-58
2023/02/23 12:03:37;;;;;;;201.02;20.92;;;;;;;;;;4976643;28;20581;-58
2023/02/23 12:06:02;;;;;;;185.70;19.77;;;;;;;;;;4978468;28;20042;-59
2023/02/23 12:08:34;;;;;;;189.38;18.55;;;;;;;;;;4980236;28;20026;-58
2023/02/23 12:11:01;;;;;;;185.38;18.48;;;;;;;;;;4972871;28;20046;-58
2023/02/23 12:13:31;;;;;;;196.52;19.60;;;;;;;;;;4977338;28;20037;-59
2023/02/23 12:16:09;;;;;;;189.57;19.00;;;;;;;;;;4975161;28;20093;-59
2023/02/23 12:18:52;;;;;;;179.80;17.88;;;;;;;;;;4977087;28;20037;-58
2023/02/23 12:21:18;;;;;;;179.88;18.73;;;;;;;;;;4979116;28;20683;-58
2023/02/23 12:23:45;;;;;;;178.93;19.27;;;;;;;;;;4979404;28;20133;-58
2023/02/23 12:26:12;;;;;;;197.48;19.55;;;;;;;;;;4975046;28;20266;-57
2023/02/23 12:28:51;;;;;;;170.38;17.92;;;;;;;;;;4974708;28;20105;-58
2023/02/23 12:31:35;;;;;;;162.57;17.20;;;;;;;;;;4974486;28;20121;-58
2023/02/23 12:34:03;;;;;;;169.05;17.00;;;;;;;;;;4977705;28;20648;-59
2023/02/23 12:36:39;;;;;;;172.80;17.98;;;;;;;;;;4974485;28;20045;-59
2023/02/23 12:39:12;;;;;;;163.02;17.63;;;;;;;;;;4978084;28;20030;-58
2023/02/23 12:41:42;;;;;;;204.60;17.42;;;;;;;;;;4976072;28;20039;-57
2023/02/23 12:44:14;;;;;;;166.30;17.48;;;;;;;;;;4976922;28;20022;-57
2023/02/23 12:46:47;;;;;;;236.75;19.27;;;;;;;;;;4978852;28;20047;-59
2023/02/23 12:49:12;;;;;;;148.43;17.17;;;;;;;;;;4978918;28;20552;-58
2023/02/23 12:51:41;;;;;;;149.70;16.87;;;;;;;;;;4976466;28;20039;-58
2023/02/23 12:54:08;;;;;;;198.55;18.85;;;;;;;;;;4973249;28;20357;-59
2023/02/23 12:56:52;;;;;;;161.88;16.73;;;;;;;;;;4978266;28;20612;-59
2023/02/23 12:59:37;;;;;;;170.60;18.73;;;;;;;;;;4978468;28;20074;-61
2023/02/23 13:02:07;;;;;;;202.35;18.70;;;;;;;;;;4959710;28;20031;-58
2023/02/23 13:04:35;;;;;;;193.27;17.27;;;;;;;;;;4977584;28;20509;-59
2023/02/23 13:07:00;;;;;;;179.55;17.60;;;;;;;;;;4974343;28;20074;-57
2023/02/23 13:09:35;;;;;;;164.10;16.83;;;;;;;;;;4975833;28;20732;-58
2023/02/23 13:12:00;;;;;;;203.73;18.75;;;;;;;;;;4958839;28;20260;-58
2023/02/23 13:14:35;;;;;;;200.93;18.77;;;;;;;;;;4976608;28;20031;-58
2023/02/23 13:17:04;;;;;;;177.00;17.38;;;;;;;;;;4964032;28;20269;-58
2023/02/23 13:19:29;;;;;;;194.25;15.77;;;;;;;;;;4975791;28;21059;-60
2023/02/23 13:22:03;;;;;;;179.90;16.63;;;;;;;;;;4976772;28;20038;-59
2023/02/23 13:24:33;;;;;;;206.15;17.23;;;;;;;;;;4976994;28;20096;-59
2023/02/23 13:27:11;;;;;;;180.88;17.00;;;;;;;;;;4974173;28;20039;-58
2023/02/23 13:29:38;;;;;;;197.52;16.02;;;;;;;;;;4977271;28;20022;-58
2023/02/23 13:32:07;;;;;;;160.40;15.68;;;;;;;;;;4977315;28;20068;-58
2023/02/23 13:34:34;;;;;;;196.95;14.75;;;;;;;;;;4967406;28;20237;-59
2023/02/23 13:37:01;;;;;;;176.27;14.93;;;;;;;;;;4975566;28;20184;-58
2023/02/23 13:39:38;;;;;;;169.95;15.35;;;;;;;;;;4975368;28;20026;-59
2023/02/23 13:42:09;;;;;;;163.02;15.07;;;;;;;;;;4975974;28;20138;-60
2023/02/23 13:44:37;;;;;;;171.38;15.48;;;;;;;;;;4972834;28;20030;-59
2023/02/23 13:47:23;;;;;;;186.98;14.82;;;;;;;;;;4975330;28;20076;-57
2023/02/23 13:49:49;;;;;;;181.85;15.15;;;;;;;;;;4976103;28;20084;-59
2023/02/23 13:52:32;;;;;;;206.00;15.50;;;;;;;;;;4976142;28;20490;-58
2023/02/23 13:55:02;;;;;;;167.52;14.48;;;;;;;;;;4975491;28;20108;-59
2023/02/23 13:57:28;;;;;;;193.70;14.73;;;;;;;;;;4973439;28;20545;-59
2023/02/23 13:59:53;;;;;;;170.73;14.55;;;;;;;;;;4973332;28;20472;-58
2023/02/23 14:02:22;;;;;;;198.90;13.73;;;;;;;;;;4979415;28;20692;-59
2023/02/23 14:04:48;;;;;;;193.73;14.80;;;;;;;;;;4983534;28;20023;-58
2023/02/23 14:07:21;;;;;;;165.57;13.27;;;;;;;;;;4979225;28;20103;-59
2023/02/23 14:09:57;;;;;;;174.63;13.43;;;;;;;;;;4974077;28;20145;-60
2023/02/23 14:12:22;;;;;;;176.68;14.32;;;;;;;;;;4975500;28;20034;-59
2023/02/23 14:14:48;;;;;;;210.17;15.53;;;;;;;;;;4976431;28;20030;-59
2023/02/23 14:17:13;;;;;;;174.55;13.50;;;;;;;;;;4973481;28;20069;-58
2023/02/23 14:19:42;;;;;;;211.75;15.63;;;;;;;;;;4977048;28;20026;-58
2023/02/23 14:22:20;;;;;;;151.60;12.98;;;;;;;;;;4972443;28;20031;-60
2023/02/23 14:24:46;;;;;;;177.60;14.05;;;;;;;;;;4975691;28;20036;-58
2023/02/23 14:27:20;;;;;;;173.63;14.23;;;;;;;;;;4978117;28;20033;-59
2023/02/23 14:30:04;;;;;;;220.07;14.25;;;;;;;;;;4975596;28;20034;-61
2023/02/23 14:32:30;;;;;;;136.93;13.00;;;;;;;;;;4971171;28;20045;-60
2023/02/23 14:34:58;;;;;;;198.73;14.10;;;;;;;;;;4975303;28;20098;-60
2023/02/23 14:37:29;;;;;;;175.23;13.80;;;;;;;;;;4973835;28;20036;-58
2023/02/23 14:39:59;;;;;;;132.70;12.68;;;;;;;;;;4977148;28;20023;-60
2023/02/23 14:42:25;;;;;;;167.77;13.60;;;;;;;;;;4976059;28;20051;-58
2023/02/23 14:44:52;;;;;;;214.57;14.00;;;;;;;;;;4974220;28;20108;-59
2023/02/23 14:47:19;;;;;;;196.00;14.05;;;;;;;;;;4973517;28;20045;-57
2023/02/23 14:49:45;;;;;;;162.85;12.88;;;;;;;;;;4963351;28;20022;-58
2023/02/23 14:52:19;;;;;;;171.48;12.38;;;;;;;;;;4975090;28;20098;-59
2023/02/23 14:54:45;;;;;;;177.18;12.35;;;;;;;;;;4977584;28;20525;-59
2023/02/23 14:57:20;;;;;;;148.45;12.30;;;;;;;;;;4973319;28;20043;-59
2023/02/23 14:59:55;;;;;;;159.90;12.90;;;;;;;;;;4973827;28;20017;-58
2023/02/23 15:02:23;;;;;;;184.95;13.05;;;;;;;;;;4971716;28;20543;-58
2023/02/23 15:04:48;;;;;;;201.95;13.50;;;;;;;;;;4976667;28;20085;-58
2023/02/23 15:07:32;;;;;;;172.20;13.25;;;;;;;;;;4976832;28;20118;-59
2023/02/23 15:09:58;;;;;;;164.65;12.32;;;;;;;;;;4979149;28;20147;-59
2023/02/23 15:12:27;;;;;;;198.57;13.20;;;;;;;;;;4980301;28;20117;-59
2023/02/23 15:14:55;;;;;;;216.57;14.55;;;;;;;;;;4980295;28;20031;-58
2023/02/23 15:17:22;;;;;;;167.02;12.98;;;;;;;;;;4976348;28;20375;-59
2023/02/23 15:19:49;;;;;;;175.05;13.07;;;;;;;;;;4977844;28;20057;-58
2023/02/23 15:22:25;;;;;;;187.73;13.13;;;;;;;;;;4979443;28;20035;-58
2023/02/23 15:24:51;;;;;;;206.65;14.75;;;;;;;;;;4976179;28;20026;-58
2023/02/23 15:27:21;;;;;;;153.93;12.98;;;;;;;;;;4977654;28;20133;-59